sensor_id;sensor_type;location;lat;lon;timestamp;temperature;humidity
32097;DHT22;18610;49.916;8.284;2023-08-21T00:00:22;22.80;99.90
32097;DHT22;18610;49.916;8.284;2023-08-21T00:02:48;22.80;99.90
32097;DHT22;18610;49.916;8.284;2023-08-21T00:05:15;22.70;99.90
32097;DHT22;18610;49.916;8.284;2023-08-21T00:07:42;22.70;99.90
32097;DHT22;18610;49.916;8.284;2023-08-21T00:10:09;22.60;99.90
32097;DHT22;18610;49.916;8.284;2023-08-21T00:12:39;22.60;99.90
32097;DHT22;18610;49.916;8.284;2023-08-21T00:15:07;22.50;99.90
32097;DHT22;18610;49.916;8.284;2023-08-21T00:17:35;22.50;99.90
32097;DHT22;18610;49.916;8.284;2023-08-21T00:20:02;22.50;99.90
32097;DHT22;18610;49.916;8.284;2023-08-21T00:22:29;22.40;99.90
32097;DHT22;18610;49.916;8.284;2023-08-21T00:24:56;22.40;99.90
32097;DHT22;18610;49.916;8.284;2023-08-21T00:27:22;22.40;99.90
32097;DHT22;18610;49.916;8.284;2023-08-21T00:29:50;22.40;99.90
32097;DHT22;18610;49.916;8.284;2023-08-21T00:32:17;22.30;99.90
32097;DHT22;18610;49.916;8.284;2023-08-21T00:34:44;22.30;99.90
32097;DHT22;18610;49.916;8.284;2023-08-21T00:37:10;22.30;99.90
32097;DHT22;18610;49.916;8.284;2023-08-21T00:39:37;22.20;99.90
32097;DHT22;18610;49.916;8.284;2023-08-21T00:42:04;22.20;99.90
32097;DHT22;18610;49.916;8.284;2023-08-21T00:44:32;22.20;99.90
32097;DHT22;18610;49.916;8.284;2023-08-21T00:47:00;22.20;99.90
32097;DHT22;18610;49.916;8.284;2023-08-21T00:49:27;22.20;99.90
32097;DHT22;18610;49.916;8.284;2023-08-21T00:51:55;22.20;99.90
32097;DHT22;18610;49.916;8.284;2023-08-21T00:54:22;22.20;99.90
32097;DHT22;18610;49.916;8.284;2023-08-21T00:56:49;22.20;99.90
32097;DHT22;18610;49.916;8.284;2023-08-21T00:59:18;22.20;99.90
32097;DHT22;18610;49.916;8.284;2023-08-21T01:01:45;22.20;99.90
32097;DHT22;18610;49.916;8.284;2023-08-21T01:04:13;22.20;99.90
32097;DHT22;18610;49.916;8.284;2023-08-21T01:06:39;22.10;99.90
32097;DHT22;18610;49.916;8.284;2023-08-21T01:09:11;22.10;99.90
32097;DHT22;18610;49.916;8.284;2023-08-21T01:11:47;22.10;99.90
32097;DHT22;18610;49.916;8.284;2023-08-21T01:14:22;22.00;99.90
32097;DHT22;18610;49.916;8.284;2023-08-21T01:16:56;22.00;99.90
32097;DHT22;18610;49.916;8.284;2023-08-21T01:19:35;21.90;99.90
32097;DHT22;18610;49.916;8.284;2023-08-21T01:22:02;21.90;99.90
32097;DHT22;18610;49.916;8.284;2023-08-21T01:24:30;21.90;99.90
32097;DHT22;18610;49.916;8.284;2023-08-21T01:26:57;21.80;99.90
32097;DHT22;18610;49.916;8.284;2023-08-21T01:29:24;21.80;99.90
32097;DHT22;18610;49.916;8.284;2023-08-21T01:31:58;21.80;99.90
32097;DHT22;18610;49.916;8.284;2023-08-21T01:34:26;21.70;99.90
32097;DHT22;18610;49.916;8.284;2023-08-21T01:36:55;21.70;99.90
32097;DHT22;18610;49.916;8.284;2023-08-21T01:39:23;21.70;99.90
32097;DHT22;18610;49.916;8.284;2023-08-21T01:41:51;21.70;99.90
32097;DHT22;18610;49.916;8.284;2023-08-21T01:44:18;21.70;99.90
32097;DHT22;18610;49.916;8.284;2023-08-21T01:46:44;21.70;99.90
32097;DHT22;18610;49.916;8.284;2023-08-21T01:49:11;21.70;99.90
32097;DHT22;18610;49.916;8.284;2023-08-21T01:51:37;21.60;99.90
32097;DHT22;18610;49.916;8.284;2023-08-21T01:54:04;21.60;99.90
32097;DHT22;18610;49.916;8.284;2023-08-21T01:56:31;21.60;99.90
32097;DHT22;18610;49.916;8.284;2023-08-21T01:58:59;21.60;99.90
32097;DHT22;18610;49.916;8.284;2023-08-21T02:01:26;21.60;99.90
32097;DHT22;18610;49.916;8.284;2023-08-21T02:03:52;21.60;99.90
32097;DHT22;18610;49.916;8.284;2023-08-21T02:06:19;21.60;99.90
32097;DHT22;18610;49.916;8.284;2023-08-21T02:08:45;21.60;99.90
32097;DHT22;18610;49.916;8.284;2023-08-21T02:11:12;21.50;99.90
32097;DHT22;18610;49.916;8.284;2023-08-21T02:13:39;21.50;99.90
32097;DHT22;18610;49.916;8.284;2023-08-21T02:16:07;21.50;99.90
32097;DHT22;18610;49.916;8.284;2023-08-21T02:18:33;21.50;99.90
32097;DHT22;18610;49.916;8.284;2023-08-21T02:21:00;21.50;99.90
32097;DHT22;18610;49.916;8.284;2023-08-21T02:23:27;21.50;99.90
32097;DHT22;18610;49.916;8.284;2023-08-21T02:25:54;21.50;99.90
32097;DHT22;18610;49.916;8.284;2023-08-21T02:28:21;21.50;99.90
32097;DHT22;18610;49.916;8.284;2023-08-21T02:30:47;21.40;99.90
32097;DHT22;18610;49.916;8.284;2023-08-21T02:33:15;21.50;99.90
32097;DHT22;18610;49.916;8.284;2023-08-21T02:35:42;21.50;99.90
32097;DHT22;18610;49.916;8.284;2023-08-21T02:38:09;21.50;99.90
32097;DHT22;18610;49.916;8.284;2023-08-21T02:40:35;21.50;99.90
32097;DHT22;18610;49.916;8.284;2023-08-21T02:43:02;21.50;99.90
32097;DHT22;18610;49.916;8.284;2023-08-21T02:45:30;21.40;99.90
32097;DHT22;18610;49.916;8.284;2023-08-21T02:47:57;21.50;99.90
32097;DHT22;18610;49.916;8.284;2023-08-21T02:50:25;21.40;99.90
32097;DHT22;18610;49.916;8.284;2023-08-21T02:52:51;21.40;99.90
32097;DHT22;18610;49.916;8.284;2023-08-21T02:55:18;21.40;99.90
32097;DHT22;18610;49.916;8.284;2023-08-21T02:57:46;21.30;99.90
32097;DHT22;18610;49.916;8.284;2023-08-21T03:00:13;21.30;99.90
32097;DHT22;18610;49.916;8.284;2023-08-21T03:02:39;21.30;99.90
32097;DHT22;18610;49.916;8.284;2023-08-21T03:05:08;21.30;99.90
32097;DHT22;18610;49.916;8.284;2023-08-21T03:07:36;21.30;99.90
32097;DHT22;18610;49.916;8.284;2023-08-21T03:10:04;21.30;99.90
32097;DHT22;18610;49.916;8.284;2023-08-21T03:12:30;21.20;99.90
32097;DHT22;18610;49.916;8.284;2023-08-21T03:14:57;21.20;99.90
32097;DHT22;18610;49.916;8.284;2023-08-21T03:17:24;21.20;99.90
32097;DHT22;18610;49.916;8.284;2023-08-21T03:19:51;21.20;99.90
32097;DHT22;18610;49.916;8.284;2023-08-21T03:22:17;21.10;99.90
32097;DHT22;18610;49.916;8.284;2023-08-21T03:24:45;21.10;99.90
32097;DHT22;18610;49.916;8.284;2023-08-21T03:27:16;21.10;99.90
32097;DHT22;18610;49.916;8.284;2023-08-21T03:29:43;21.10;99.90
32097;DHT22;18610;49.916;8.284;2023-08-21T03:32:14;21.10;99.90
32097;DHT22;18610;49.916;8.284;2023-08-21T03:34:40;21.00;99.90
32097;DHT22;18610;49.916;8.284;2023-08-21T03:37:07;21.00;99.90
32097;DHT22;18610;49.916;8.284;2023-08-21T03:39:34;21.00;99.90
32097;DHT22;18610;49.916;8.284;2023-08-21T03:42:02;21.00;99.90
32097;DHT22;18610;49.916;8.284;2023-08-21T03:44:29;21.00;99.90
32097;DHT22;18610;49.916;8.284;2023-08-21T03:46:55;20.90;99.90
32097;DHT22;18610;49.916;8.284;2023-08-21T03:49:22;21.00;99.90
32097;DHT22;18610;49.916;8.284;2023-08-21T03:51:49;20.90;99.90
32097;DHT22;18610;49.916;8.284;2023-08-21T03:54:15;20.90;99.90
32097;DHT22;18610;49.916;8.284;2023-08-21T03:56:42;20.90;99.90
32097;DHT22;18610;49.916;8.284;2023-08-21T03:59:10;20.90;99.90
32097;DHT22;18610;49.916;8.284;2023-08-21T04:01:37;20.80;99.90
32097;DHT22;18610;49.916;8.284;2023-08-21T04:04:04;20.80;99.90
32097;DHT22;18610;49.916;8.284;2023-08-21T04:06:31;20.80;99.90
32097;DHT22;18610;49.916;8.284;2023-08-21T04:08:57;20.80;99.90
32097;DHT22;18610;49.916;8.284;2023-08-21T04:11:24;20.70;99.90
32097;DHT22;18610;49.916;8.284;2023-08-21T04:13:51;20.70;99.90
32097;DHT22;18610;49.916;8.284;2023-08-21T04:16:19;20.70;99.90
32097;DHT22;18610;49.916;8.284;2023-08-21T04:18:46;20.70;99.90
32097;DHT22;18610;49.916;8.284;2023-08-21T04:21:13;20.70;99.90
32097;DHT22;18610;49.916;8.284;2023-08-21T04:23:40;20.60;99.90
32097;DHT22;18610;49.916;8.284;2023-08-21T04:26:06;20.60;99.90
32097;DHT22;18610;49.916;8.284;2023-08-21T04:28:34;20.60;99.90
32097;DHT22;18610;49.916;8.284;2023-08-21T04:31:01;20.60;99.90
32097;DHT22;18610;49.916;8.284;2023-08-21T04:33:32;20.60;99.90
32097;DHT22;18610;49.916;8.284;2023-08-21T04:35:59;20.60;99.90
32097;DHT22;18610;49.916;8.284;2023-08-21T04:38:25;20.60;99.90
32097;DHT22;18610;49.916;8.284;2023-08-21T04:40:52;20.60;99.90
32097;DHT22;18610;49.916;8.284;2023-08-21T04:43:20;20.60;99.90
32097;DHT22;18610;49.916;8.284;2023-08-21T04:45:48;20.60;99.90
32097;DHT22;18610;49.916;8.284;2023-08-21T04:48:15;20.60;99.90
32097;DHT22;18610;49.916;8.284;2023-08-21T04:50:43;20.60;99.90
32097;DHT22;18610;49.916;8.284;2023-08-21T04:53:10;20.60;99.90
32097;DHT22;18610;49.916;8.284;2023-08-21T04:55:37;20.60;99.90
32097;DHT22;18610;49.916;8.284;2023-08-21T04:58:06;20.60;99.90
32097;DHT22;18610;49.916;8.284;2023-08-21T05:00:32;20.60;99.90
32097;DHT22;18610;49.916;8.284;2023-08-21T05:02:59;20.60;99.90
32097;DHT22;18610;49.916;8.284;2023-08-21T05:05:26;20.70;99.90
32097;DHT22;18610;49.916;8.284;2023-08-21T05:07:54;20.70;99.90
32097;DHT22;18610;49.916;8.284;2023-08-21T05:10:20;20.70;99.90
32097;DHT22;18610;49.916;8.284;2023-08-21T05:12:47;20.70;99.90
32097;DHT22;18610;49.916;8.284;2023-08-21T05:15:14;20.80;99.90
32097;DHT22;18610;49.916;8.284;2023-08-21T05:17:41;20.90;99.90
32097;DHT22;18610;49.916;8.284;2023-08-21T05:20:09;20.90;99.90
32097;DHT22;18610;49.916;8.284;2023-08-21T05:22:39;21.00;99.90
32097;DHT22;18610;49.916;8.284;2023-08-21T05:25:08;21.00;99.90
32097;DHT22;18610;49.916;8.284;2023-08-21T05:27:35;21.10;99.90
32097;DHT22;18610;49.916;8.284;2023-08-21T05:30:01;21.20;99.90
32097;DHT22;18610;49.916;8.284;2023-08-21T05:32:28;21.20;99.90
32097;DHT22;18610;49.916;8.284;2023-08-21T05:34:55;21.30;99.90
32097;DHT22;18610;49.916;8.284;2023-08-21T05:37:21;21.40;99.90
32097;DHT22;18610;49.916;8.284;2023-08-21T05:39:48;21.50;99.90
32097;DHT22;18610;49.916;8.284;2023-08-21T05:42:16;21.60;99.90
32097;DHT22;18610;49.916;8.284;2023-08-21T05:44:43;21.70;99.90
32097;DHT22;18610;49.916;8.284;2023-08-21T05:47:10;21.80;99.90
32097;DHT22;18610;49.916;8.284;2023-08-21T05:49:36;21.90;99.90
32097;DHT22;18610;49.916;8.284;2023-08-21T05:52:03;22.00;99.90
32097;DHT22;18610;49.916;8.284;2023-08-21T05:54:30;22.10;99.90
32097;DHT22;18610;49.916;8.284;2023-08-21T05:56:57;22.20;99.90
32097;DHT22;18610;49.916;8.284;2023-08-21T05:59:30;22.30;99.90
32097;DHT22;18610;49.916;8.284;2023-08-21T06:01:57;22.40;99.90
32097;DHT22;18610;49.916;8.284;2023-08-21T06:04:23;22.50;99.90
32097;DHT22;18610;49.916;8.284;2023-08-21T06:06:50;22.60;99.90
32097;DHT22;18610;49.916;8.284;2023-08-21T06:09:17;22.70;99.90
32097;DHT22;18610;49.916;8.284;2023-08-21T06:11:43;22.80;99.90
32097;DHT22;18610;49.916;8.284;2023-08-21T06:14:10;22.90;99.90
32097;DHT22;18610;49.916;8.284;2023-08-21T06:16:38;23.10;99.90
32097;DHT22;18610;49.916;8.284;2023-08-21T06:19:05;23.20;99.90
32097;DHT22;18610;49.916;8.284;2023-08-21T06:21:31;23.30;99.90
32097;DHT22;18610;49.916;8.284;2023-08-21T06:23:58;23.40;99.90
32097;DHT22;18610;49.916;8.284;2023-08-21T06:26:25;23.60;99.90
32097;DHT22;18610;49.916;8.284;2023-08-21T06:28:52;23.70;99.90
32097;DHT22;18610;49.916;8.284;2023-08-21T06:31:18;23.80;99.90
32097;DHT22;18610;49.916;8.284;2023-08-21T06:33:47;24.00;99.90
32097;DHT22;18610;49.916;8.284;2023-08-21T06:36:13;24.10;99.90
32097;DHT22;18610;49.916;8.284;2023-08-21T06:38:40;24.20;99.90
32097;DHT22;18610;49.916;8.284;2023-08-21T06:41:07;24.40;99.90
32097;DHT22;18610;49.916;8.284;2023-08-21T06:43:33;24.50;99.90
32097;DHT22;18610;49.916;8.284;2023-08-21T06:46:01;24.60;99.90
32097;DHT22;18610;49.916;8.284;2023-08-21T06:48:27;24.70;99.90
32097;DHT22;18610;49.916;8.284;2023-08-21T06:50:55;24.80;99.90
32097;DHT22;18610;49.916;8.284;2023-08-21T06:53:22;24.90;99.90
32097;DHT22;18610;49.916;8.284;2023-08-21T06:55:49;25.00;99.90
32097;DHT22;18610;49.916;8.284;2023-08-21T06:58:15;25.10;99.90
32097;DHT22;18610;49.916;8.284;2023-08-21T07:00:42;25.20;99.90
32097;DHT22;18610;49.916;8.284;2023-08-21T07:03:08;25.20;99.90
32097;DHT22;18610;49.916;8.284;2023-08-21T07:05:35;25.30;99.90
32097;DHT22;18610;49.916;8.284;2023-08-21T07:08:04;25.40;99.90
32097;DHT22;18610;49.916;8.284;2023-08-21T07:10:35;25.50;99.90
32097;DHT22;18610;49.916;8.284;2023-08-21T07:13:02;25.50;99.90
32097;DHT22;18610;49.916;8.284;2023-08-21T07:15:29;25.70;99.90
32097;DHT22;18610;49.916;8.284;2023-08-21T07:17:56;25.70;99.90
32097;DHT22;18610;49.916;8.284;2023-08-21T07:20:22;25.80;99.90
32097;DHT22;18610;49.916;8.284;2023-08-21T07:22:49;25.90;99.90
32097;DHT22;18610;49.916;8.284;2023-08-21T07:25:17;26.00;99.90
32097;DHT22;18610;49.916;8.284;2023-08-21T07:27:44;26.10;99.90
32097;DHT22;18610;49.916;8.284;2023-08-21T07:30:11;26.10;99.90
32097;DHT22;18610;49.916;8.284;2023-08-21T07:32:38;26.30;99.90
32097;DHT22;18610;49.916;8.284;2023-08-21T07:35:05;26.30;99.90
32097;DHT22;18610;49.916;8.284;2023-08-21T07:37:32;26.50;99.90
32097;DHT22;18610;49.916;8.284;2023-08-21T07:39:58;26.70;99.90
32097;DHT22;18610;49.916;8.284;2023-08-21T07:42:26;26.80;99.90
32097;DHT22;18610;49.916;8.284;2023-08-21T07:44:53;26.90;99.90
32097;DHT22;18610;49.916;8.284;2023-08-21T07:47:20;27.10;99.90
32097;DHT22;18610;49.916;8.284;2023-08-21T07:49:46;27.30;99.90
32097;DHT22;18610;49.916;8.284;2023-08-21T07:52:13;27.40;99.90
32097;DHT22;18610;49.916;8.284;2023-08-21T07:54:41;27.50;99.90
32097;DHT22;18610;49.916;8.284;2023-08-21T07:57:08;27.60;99.90
32097;DHT22;18610;49.916;8.284;2023-08-21T07:59:36;27.70;99.90
32097;DHT22;18610;49.916;8.284;2023-08-21T08:02:03;27.90;99.90
32097;DHT22;18610;49.916;8.284;2023-08-21T08:04:30;28.00;99.90
32097;DHT22;18610;49.916;8.284;2023-08-21T08:06:56;28.20;99.90
32097;DHT22;18610;49.916;8.284;2023-08-21T08:09:23;28.30;99.90
32097;DHT22;18610;49.916;8.284;2023-08-21T08:11:50;28.50;99.90
32097;DHT22;18610;49.916;8.284;2023-08-21T08:14:17;28.60;99.90
32097;DHT22;18610;49.916;8.284;2023-08-21T08:16:45;28.60;99.90
32097;DHT22;18610;49.916;8.284;2023-08-21T08:19:11;28.60;99.90
32097;DHT22;18610;49.916;8.284;2023-08-21T08:21:38;28.70;99.90
32097;DHT22;18610;49.916;8.284;2023-08-21T08:24:05;28.70;99.90
32097;DHT22;18610;49.916;8.284;2023-08-21T08:26:32;28.80;99.90
32097;DHT22;18610;49.916;8.284;2023-08-21T08:28:58;28.80;99.90
32097;DHT22;18610;49.916;8.284;2023-08-21T08:31:25;28.60;99.90
32097;DHT22;18610;49.916;8.284;2023-08-21T08:33:54;28.60;99.90
32097;DHT22;18610;49.916;8.284;2023-08-21T08:36:21;28.70;99.90
32097;DHT22;18610;49.916;8.284;2023-08-21T08:38:47;28.90;99.90
32097;DHT22;18610;49.916;8.284;2023-08-21T08:41:24;29.10;99.90
32097;DHT22;18610;49.916;8.284;2023-08-21T08:43:55;29.30;99.90
32097;DHT22;18610;49.916;8.284;2023-08-21T08:46:23;29.50;99.90
32097;DHT22;18610;49.916;8.284;2023-08-21T08:48:50;29.60;99.90
32097;DHT22;18610;49.916;8.284;2023-08-21T08:51:19;29.80;99.90
32097;DHT22;18610;49.916;8.284;2023-08-21T08:53:46;29.90;99.90
32097;DHT22;18610;49.916;8.284;2023-08-21T08:56:13;30.00;99.90
32097;DHT22;18610;49.916;8.284;2023-08-21T08:58:40;30.20;99.90
32097;DHT22;18610;49.916;8.284;2023-08-21T09:01:08;30.30;99.90
32097;DHT22;18610;49.916;8.284;2023-08-21T09:03:36;30.40;99.90
32097;DHT22;18610;49.916;8.284;2023-08-21T09:06:03;30.40;99.90
32097;DHT22;18610;49.916;8.284;2023-08-21T09:08:31;30.60;99.80
32097;DHT22;18610;49.916;8.284;2023-08-21T09:11:01;30.60;99.40
32097;DHT22;18610;49.916;8.284;2023-08-21T09:13:28;30.70;99.20
32097;DHT22;18610;49.916;8.284;2023-08-21T09:15:57;30.70;99.10
32097;DHT22;18610;49.916;8.284;2023-08-21T09:18:24;30.80;99.10
32097;DHT22;18610;49.916;8.284;2023-08-21T09:20:51;30.90;99.10
32097;DHT22;18610;49.916;8.284;2023-08-21T09:23:18;31.00;98.70
32097;DHT22;18610;49.916;8.284;2023-08-21T09:25:47;31.20;98.40
32097;DHT22;18610;49.916;8.284;2023-08-21T09:28:17;31.40;98.10
32097;DHT22;18610;49.916;8.284;2023-08-21T09:30:49;31.60;97.20
32097;DHT22;18610;49.916;8.284;2023-08-21T09:33:19;31.60;96.90
32097;DHT22;18610;49.916;8.284;2023-08-21T09:35:47;31.80;97.20
32097;DHT22;18610;49.916;8.284;2023-08-21T09:38:14;32.00;97.00
32097;DHT22;18610;49.916;8.284;2023-08-21T09:40:41;32.30;96.50
32097;DHT22;18610;49.916;8.284;2023-08-21T09:43:10;32.50;96.00
32097;DHT22;18610;49.916;8.284;2023-08-21T09:45:37;32.80;95.40
32097;DHT22;18610;49.916;8.284;2023-08-21T09:48:05;33.00;94.70
32097;DHT22;18610;49.916;8.284;2023-08-21T09:50:32;33.20;94.30
32097;DHT22;18610;49.916;8.284;2023-08-21T09:52:59;33.30;93.90
32097;DHT22;18610;49.916;8.284;2023-08-21T09:55:26;33.50;93.60
32097;DHT22;18610;49.916;8.284;2023-08-21T09:57:57;33.70;93.10
32097;DHT22;18610;49.916;8.284;2023-08-21T10:00:28;33.80;91.20
32097;DHT22;18610;49.916;8.284;2023-08-21T10:02:59;33.80;90.80
32097;DHT22;18610;49.916;8.284;2023-08-21T10:05:27;33.30;90.40
32097;DHT22;18610;49.916;8.284;2023-08-21T10:07:55;32.80;91.90
32097;DHT22;18610;49.916;8.284;2023-08-21T10:10:23;32.80;91.30
32097;DHT22;18610;49.916;8.284;2023-08-21T10:12:50;32.80;91.70
32097;DHT22;18610;49.916;8.284;2023-08-21T10:15:17;33.10;92.20
32097;DHT22;18610;49.916;8.284;2023-08-21T10:17:45;33.40;92.00
32097;DHT22;18610;49.916;8.284;2023-08-21T10:20:11;33.80;91.00
32097;DHT22;18610;49.916;8.284;2023-08-21T10:22:46;34.10;90.70
32097;DHT22;18610;49.916;8.284;2023-08-21T10:25:17;34.40;89.10
32097;DHT22;18610;49.916;8.284;2023-08-21T10:27:46;34.70;87.00
32097;DHT22;18610;49.916;8.284;2023-08-21T10:30:14;34.90;84.60
32097;DHT22;18610;49.916;8.284;2023-08-21T10:32:46;35.10;82.10
32097;DHT22;18610;49.916;8.284;2023-08-21T10:35:19;35.30;79.80
32097;DHT22;18610;49.916;8.284;2023-08-21T10:38:10;35.10;80.60
32097;DHT22;18610;49.916;8.284;2023-08-21T10:40:38;35.10;81.10
32097;DHT22;18610;49.916;8.284;2023-08-21T10:43:39;35.30;81.10
32097;DHT22;18610;49.916;8.284;2023-08-21T10:46:06;35.60;78.00
32097;DHT22;18610;49.916;8.284;2023-08-21T10:48:34;35.80;76.10
32097;DHT22;18610;49.916;8.284;2023-08-21T10:51:02;35.90;75.90
32097;DHT22;18610;49.916;8.284;2023-08-21T10:53:30;36.10;75.30
32097;DHT22;18610;49.916;8.284;2023-08-21T10:55:57;36.20;75.00
32097;DHT22;18610;49.916;8.284;2023-08-21T10:58:24;36.40;69.40
32097;DHT22;18610;49.916;8.284;2023-08-21T11:00:56;36.40;69.30
32097;DHT22;18610;49.916;8.284;2023-08-21T11:03:23;36.60;69.70
32097;DHT22;18610;49.916;8.284;2023-08-21T11:06:02;36.80;69.40
32097;DHT22;18610;49.916;8.284;2023-08-21T11:08:29;36.80;69.20
32097;DHT22;18610;49.916;8.284;2023-08-21T11:10:55;36.90;66.00
32097;DHT22;18610;49.916;8.284;2023-08-21T11:13:23;36.70;66.00
32097;DHT22;18610;49.916;8.284;2023-08-21T11:15:57;36.70;67.10
32097;DHT22;18610;49.916;8.284;2023-08-21T11:18:29;36.80;65.90
32097;DHT22;18610;49.916;8.284;2023-08-21T11:21:05;36.70;63.80
32097;DHT22;18610;49.916;8.284;2023-08-21T11:23:32;36.70;63.70
32097;DHT22;18610;49.916;8.284;2023-08-21T11:25:59;36.90;63.20
32097;DHT22;18610;49.916;8.284;2023-08-21T11:28:28;36.90;63.60
32097;DHT22;18610;49.916;8.284;2023-08-21T11:30:55;37.00;62.60
32097;DHT22;18610;49.916;8.284;2023-08-21T11:33:23;37.00;62.60
32097;DHT22;18610;49.916;8.284;2023-08-21T11:35:50;36.90;61.60
32097;DHT22;18610;49.916;8.284;2023-08-21T11:38:21;36.70;60.60
32097;DHT22;18610;49.916;8.284;2023-08-21T11:40:53;36.90;61.20
32097;DHT22;18610;49.916;8.284;2023-08-21T11:43:19;37.20;61.10
32097;DHT22;18610;49.916;8.284;2023-08-21T11:45:46;37.50;61.30
32097;DHT22;18610;49.916;8.284;2023-08-21T11:48:13;37.90;59.90
32097;DHT22;18610;49.916;8.284;2023-08-21T11:50:40;38.00;57.40
32097;DHT22;18610;49.916;8.284;2023-08-21T11:53:07;37.70;57.40
32097;DHT22;18610;49.916;8.284;2023-08-21T11:55:35;37.70;58.20
32097;DHT22;18610;49.916;8.284;2023-08-21T11:58:03;37.80;56.40
32097;DHT22;18610;49.916;8.284;2023-08-21T12:00:30;37.80;56.20
32097;DHT22;18610;49.916;8.284;2023-08-21T12:02:58;37.80;57.00
32097;DHT22;18610;49.916;8.284;2023-08-21T12:05:26;37.80;55.90
32097;DHT22;18610;49.916;8.284;2023-08-21T12:07:52;37.80;55.80
32097;DHT22;18610;49.916;8.284;2023-08-21T12:10:23;37.70;56.00
32097;DHT22;18610;49.916;8.284;2023-08-21T12:12:51;37.40;55.50
32097;DHT22;18610;49.916;8.284;2023-08-21T12:15:19;37.50;55.90
32097;DHT22;18610;49.916;8.284;2023-08-21T12:17:46;37.60;54.70
32097;DHT22;18610;49.916;8.284;2023-08-21T12:20:12;37.90;55.50
32097;DHT22;18610;49.916;8.284;2023-08-21T12:22:40;38.30;56.00
32097;DHT22;18610;49.916;8.284;2023-08-21T12:25:08;38.70;54.70
32097;DHT22;18610;49.916;8.284;2023-08-21T12:27:35;38.80;53.10
32097;DHT22;18610;49.916;8.284;2023-08-21T12:30:04;38.70;51.70
32097;DHT22;18610;49.916;8.284;2023-08-21T12:32:31;38.10;51.90
32097;DHT22;18610;49.916;8.284;2023-08-21T12:34:58;37.90;52.20
32097;DHT22;18610;49.916;8.284;2023-08-21T12:37:25;37.80;52.30
32097;DHT22;18610;49.916;8.284;2023-08-21T12:39:53;37.90;53.20
32097;DHT22;18610;49.916;8.284;2023-08-21T12:42:20;37.90;51.90
32097;DHT22;18610;49.916;8.284;2023-08-21T12:44:47;37.90;52.30
32097;DHT22;18610;49.916;8.284;2023-08-21T12:47:15;38.00;51.50
32097;DHT22;18610;49.916;8.284;2023-08-21T12:49:42;38.10;52.50
32097;DHT22;18610;49.916;8.284;2023-08-21T12:52:08;38.00;51.60
32097;DHT22;18610;49.916;8.284;2023-08-21T12:54:37;37.80;51.80
32097;DHT22;18610;49.916;8.284;2023-08-21T12:57:04;38.00;50.60
32097;DHT22;18610;49.916;8.284;2023-08-21T12:59:30;38.40;50.20
32097;DHT22;18610;49.916;8.284;2023-08-21T13:01:58;38.50;50.10
32097;DHT22;18610;49.916;8.284;2023-08-21T13:04:27;38.50;48.60
32097;DHT22;18610;49.916;8.284;2023-08-21T13:06:53;38.70;49.70
32097;DHT22;18610;49.916;8.284;2023-08-21T13:09:20;38.80;49.60
32097;DHT22;18610;49.916;8.284;2023-08-21T13:11:49;39.00;49.00
32097;DHT22;18610;49.916;8.284;2023-08-21T13:14:16;38.90;47.90
32097;DHT22;18610;49.916;8.284;2023-08-21T13:16:42;38.50;49.20
32097;DHT22;18610;49.916;8.284;2023-08-21T13:19:09;38.20;49.10
32097;DHT22;18610;49.916;8.284;2023-08-21T13:21:37;37.80;49.90
32097;DHT22;18610;49.916;8.284;2023-08-21T13:24:04;37.90;52.10
32097;DHT22;18610;49.916;8.284;2023-08-21T13:26:32;38.20;49.60
32097;DHT22;18610;49.916;8.284;2023-08-21T13:28:59;38.40;48.80
32097;DHT22;18610;49.916;8.284;2023-08-21T13:31:25;38.70;49.20
32097;DHT22;18610;49.916;8.284;2023-08-21T13:33:52;38.80;48.90
32097;DHT22;18610;49.916;8.284;2023-08-21T13:36:19;39.00;49.30
32097;DHT22;18610;49.916;8.284;2023-08-21T13:38:48;39.10;48.50
32097;DHT22;18610;49.916;8.284;2023-08-21T13:41:15;39.20;49.70
32097;DHT22;18610;49.916;8.284;2023-08-21T13:43:41;39.10;47.90
32097;DHT22;18610;49.916;8.284;2023-08-21T13:46:08;38.70;47.50
32097;DHT22;18610;49.916;8.284;2023-08-21T13:48:35;38.40;48.20
32097;DHT22;18610;49.916;8.284;2023-08-21T13:51:02;38.40;49.60
32097;DHT22;18610;49.916;8.284;2023-08-21T13:53:29;38.70;49.70
32097;DHT22;18610;49.916;8.284;2023-08-21T13:55:57;38.70;48.00
32097;DHT22;18610;49.916;8.284;2023-08-21T13:58:24;38.50;48.60
32097;DHT22;18610;49.916;8.284;2023-08-21T14:00:50;38.30;49.40
32097;DHT22;18610;49.916;8.284;2023-08-21T14:03:17;38.20;49.50
32097;DHT22;18610;49.916;8.284;2023-08-21T14:05:44;38.20;49.40
32097;DHT22;18610;49.916;8.284;2023-08-21T14:08:10;38.20;50.10
32097;DHT22;18610;49.916;8.284;2023-08-21T14:10:37;38.40;50.00
32097;DHT22;18610;49.916;8.284;2023-08-21T14:13:05;38.40;48.70
32097;DHT22;18610;49.916;8.284;2023-08-21T14:15:33;38.00;48.40
32097;DHT22;18610;49.916;8.284;2023-08-21T14:18:00;37.60;48.40
32097;DHT22;18610;49.916;8.284;2023-08-21T14:20:27;37.30;49.00
32097;DHT22;18610;49.916;8.284;2023-08-21T14:22:54;37.20;49.50
32097;DHT22;18610;49.916;8.284;2023-08-21T14:25:21;37.20;49.50
32097;DHT22;18610;49.916;8.284;2023-08-21T14:27:47;37.00;51.10
32097;DHT22;18610;49.916;8.284;2023-08-21T14:30:16;36.70;51.10
32097;DHT22;18610;49.916;8.284;2023-08-21T14:32:43;36.60;52.00
32097;DHT22;18610;49.916;8.284;2023-08-21T14:35:09;36.60;52.50
32097;DHT22;18610;49.916;8.284;2023-08-21T14:37:37;36.50;51.50
32097;DHT22;18610;49.916;8.284;2023-08-21T14:40:05;36.60;52.90
32097;DHT22;18610;49.916;8.284;2023-08-21T14:42:33;36.80;51.60
32097;DHT22;18610;49.916;8.284;2023-08-21T14:45:00;36.80;51.80
32097;DHT22;18610;49.916;8.284;2023-08-21T14:47:28;37.00;52.80
32097;DHT22;18610;49.916;8.284;2023-08-21T14:49:54;37.10;52.30
32097;DHT22;18610;49.916;8.284;2023-08-21T14:52:21;37.00;52.50
32097;DHT22;18610;49.916;8.284;2023-08-21T14:54:48;36.90;52.20
32097;DHT22;18610;49.916;8.284;2023-08-21T14:57:15;36.60;52.10
32097;DHT22;18610;49.916;8.284;2023-08-21T14:59:42;36.10;52.20
32097;DHT22;18610;49.916;8.284;2023-08-21T15:02:08;36.20;53.70
32097;DHT22;18610;49.916;8.284;2023-08-21T15:04:36;36.40;53.40
32097;DHT22;18610;49.916;8.284;2023-08-21T15:07:03;36.40;53.40
32097;DHT22;18610;49.916;8.284;2023-08-21T15:09:30;36.30;53.70
32097;DHT22;18610;49.916;8.284;2023-08-21T15:11:57;36.20;52.60
32097;DHT22;18610;49.916;8.284;2023-08-21T15:14:23;36.10;52.80
32097;DHT22;18610;49.916;8.284;2023-08-21T15:16:50;36.00;52.60
32097;DHT22;18610;49.916;8.284;2023-08-21T15:19:16;35.90;52.70
32097;DHT22;18610;49.916;8.284;2023-08-21T15:21:44;35.70;54.20
32097;DHT22;18610;49.916;8.284;2023-08-21T15:24:11;35.50;54.30
32097;DHT22;18610;49.916;8.284;2023-08-21T15:26:38;35.40;54.70
32097;DHT22;18610;49.916;8.284;2023-08-21T15:29:04;35.40;56.00
32097;DHT22;18610;49.916;8.284;2023-08-21T15:31:31;35.30;55.80